Time;durP1;ratioP1;P1;durP2;ratioP2;P2;SDS_P1;SDS_P2;PMS_P1;PMS_P2;Temp;Humidity;BMP_temperature;BMP_pressure;BME280_temperature;BME280_humidity;BME280_pressure;Samples;Min_cycle;Max_cycle;Signal;HPM_P1;HPM_P2
2020/12/27 00:00:11;;;;;;;3.38;2.53;;;5.20;99.90;;;;;;5059731;28;20073;-91
2020/12/27 00:02:36;;;;;;;4.63;2.55;;;5.20;99.90;;;;;;5065588;28;20028;-90
2020/12/27 00:05:04;;;;;;;2.95;2.30;;;5.10;99.90;;;;;;5067019;28;20023;-91
2020/12/27 00:07:30;;;;;;;3.30;2.42;;;5.10;99.90;;;;;;5061800;28;20021;-90
2020/12/27 00:09:55;;;;;;;4.80;2.72;;;5.20;99.90;;;;;;5066133;28;20358;-90
2020/12/27 00:12:21;;;;;;;3.83;3.00;;;5.10;99.90;;;;;;5064928;28;20513;-90
2020/12/27 00:14:46;;;;;;;4.05;2.70;;;5.10;99.90;;;;;;5062711;28;20020;-92
2020/12/27 00:17:13;;;;;;;3.70;2.83;;;5.10;99.90;;;;;;5061647;28;20028;-90
2020/12/27 00:19:40;;;;;;;3.30;2.63;;;5.20;99.90;;;;;;5062053;28;20020;-92
2020/12/27 00:22:06;;;;;;;6.88;3.17;;;5.10;99.90;;;;;;5078599;28;20028;-91
2020/12/27 00:24:32;;;;;;;3.47;2.55;;;5.10;99.90;;;;;;5059018;28;20074;-90
2020/12/27 00:26:58;;;;;;;3.40;2.47;;;5.10;99.90;;;;;;5062887;28;20024;-91
2020/12/27 00:29:23;;;;;;;3.65;2.75;;;5.10;99.90;;;;;;5064657;28;20016;-90
2020/12/27 00:31:53;;;;;;;5.93;2.58;;;5.10;99.90;;;;;;5062297;28;20031;-92
2020/12/27 00:34:19;;;;;;;4.10;2.88;;;5.10;99.90;;;;;;5079286;28;20020;-91
2020/12/27 00:36:45;;;;;;;3.97;2.53;;;5.10;99.90;;;;;;5061533;28;20487;-90
2020/12/27 00:39:11;;;;;;;3.60;2.50;;;5.10;99.90;;;;;;5063929;28;20028;-91
2020/12/27 00:41:36;;;;;;;3.58;2.38;;;5.10;99.80;;;;;;5060904;28;20513;-90
2020/12/27 00:44:02;;;;;;;3.58;2.47;;;5.10;99.60;;;;;;5067956;28;20031;-90
2020/12/27 00:46:28;;;;;;;3.97;2.60;;;5.10;99.60;;;;;;5082722;28;20118;-92
2020/12/27 00:48:54;;;;;;;3.00;2.55;;;5.10;99.50;;;;;;5061402;28;20560;-91
2020/12/27 00:51:27;;;;;;;3.42;2.15;;;5.10;99.50;;;;;;5058374;28;20523;-90
2020/12/27 00:53:53;;;;;;;3.60;2.53;;;5.10;99.40;;;;;;5060934;28;20475;-90
2020/12/27 00:56:19;;;;;;;3.72;2.58;;;5.10;99.40;;;;;;5061051;28;20027;-89
2020/12/27 00:58:45;;;;;;;3.17;2.30;;;5.10;99.20;;;;;;5058113;28;20020;-89
2020/12/27 01:01:12;;;;;;;4.60;2.78;;;5.10;99.10;;;;;;5063833;28;20016;-91
2020/12/27 01:03:39;;;;;;;3.25;2.40;;;5.10;99.10;;;;;;5071295;28;20069;-90
2020/12/27 01:06:04;;;;;;;4.03;2.78;;;5.10;99.10;;;;;;5068381;28;20016;-89
2020/12/27 01:08:30;;;;;;;5.85;3.08;;;5.10;99.10;;;;;;5074984;28;20031;-90
2020/12/27 01:10:58;;;;;;;4.30;2.85;;;5.10;98.90;;;;;;5062399;28;20021;-89
2020/12/27 01:13:23;;;;;;;6.03;3.10;;;5.10;98.80;;;;;;5058324;28;20077;-88
2020/12/27 01:15:49;;;;;;;6.07;3.58;;;5.10;98.80;;;;;;5080542;28;20035;-89
2020/12/27 01:18:15;;;;;;;4.43;3.00;;;5.00;98.80;;;;;;5064121;28;20388;-89
2020/12/27 01:20:40;;;;;;;5.82;3.75;;;5.00;98.80;;;;;;5063618;28;20047;-90
2020/12/27 01:23:06;;;;;;;4.88;2.70;;;5.00;98.90;;;;;;5060195;28;20024;-89
2020/12/27 01:25:31;;;;;;;5.15;3.50;;;5.00;98.90;;;;;;5057226;28;20021;-89
2020/12/27 01:27:57;;;;;;;5.75;3.50;;;5.00;98.90;;;;;;5063488;28;20052;-89
2020/12/27 01:30:22;;;;;;;4.45;3.20;;;5.00;99.10;;;;;;5065346;28;20048;-88
2020/12/27 01:32:48;;;;;;;6.53;3.63;;;5.00;99.00;;;;;;5055337;28;20030;-90
2020/12/27 01:35:14;;;;;;;5.10;3.17;;;5.00;98.70;;;;;;5061131;28;20062;-89
2020/12/27 01:37:40;;;;;;;5.30;3.78;;;5.00;98.90;;;;;;5058017;28;20017;-89
2020/12/27 01:40:05;;;;;;;5.15;3.83;;;5.00;98.80;;;;;;5055671;28;20365;-89
2020/12/27 01:42:31;;;;;;;5.55;3.78;;;5.00;98.90;;;;;;5081310;28;20013;-89
2020/12/27 01:44:56;;;;;;;5.75;3.83;;;5.00;99.00;;;;;;5066293;28;20067;-88
2020/12/27 01:47:23;;;;;;;5.22;3.65;;;5.00;99.00;;;;;;5060355;28;20059;-89
2020/12/27 01:49:50;;;;;;;6.40;3.95;;;5.00;98.90;;;;;;5060711;28;20049;-90
2020/12/27 01:52:16;;;;;;;5.97;3.60;;;5.00;98.80;;;;;;5060668;28;20066;-90
2020/12/27 01:54:42;;;;;;;4.30;3.38;;;5.00;98.70;;;;;;5062574;28;20052;-89
2020/12/27 01:57:12;;;;;;;4.63;3.20;;;5.00;98.60;;;;;;5063135;28;20025;-90
2020/12/27 01:59:38;;;;;;;5.45;3.45;;;5.00;98.70;;;;;;5060875;28;20039;-90
2020/12/27 02:02:04;;;;;;;6.57;3.70;;;5.00;98.80;;;;;;5068023;28;20020;-88
2020/12/27 02:04:31;;;;;;;6.38;3.90;;;5.00;98.90;;;;;;5068384;28;20020;-89
2020/12/27 02:06:57;;;;;;;5.05;3.67;;;5.00;98.90;;;;;;5061649;28;20040;-90
2020/12/27 02:09:23;;;;;;;5.82;3.72;;;5.00;98.80;;;;;;5071635;28;20471;-91
2020/12/27 02:12:08;;;;;;;6.47;3.80;;;5.00;98.80;;;;;;5067153;28;20028;-91
2020/12/27 02:14:34;;;;;;;6.72;3.80;;;5.00;98.80;;;;;;5059280;28;20028;-89
2020/12/27 02:17:02;;;;;;;6.35;4.22;;;5.00;98.80;;;;;;5058479;28;20024;-90
2020/12/27 02:19:28;;;;;;;5.47;3.78;;;5.00;98.80;;;;;;5069930;28;20013;-90
2020/12/27 02:21:53;;;;;;;6.55;3.33;;;5.00;98.70;;;;;;5062586;28;20103;-90
2020/12/27 02:24:19;;;;;;;5.47;3.53;;;5.00;98.80;;;;;;5067644;28;20074;-89
2020/12/27 02:26:58;;;;;;;7.63;3.42;;;5.00;98.70;;;;;;5064056;28;20051;-88
2020/12/27 02:29:24;;;;;;;5.30;3.47;;;5.00;98.60;;;;;;5061709;28;20021;-90
2020/12/27 02:31:51;;;;;;;6.30;3.35;;;5.00;98.70;;;;;;5060179;28;20024;-89
2020/12/27 02:34:16;;;;;;;4.72;3.15;;;5.00;98.70;;;;;;5066713;28;20112;-89
2020/12/27 02:36:42;;;;;;;4.38;2.97;;;5.00;98.50;;;;;;5079677;28;20107;-90
2020/12/27 02:39:12;;;;;;;4.68;3.03;;;5.00;98.60;;;;;;5065501;28;20535;-90
2020/12/27 02:41:39;;;;;;;4.53;2.60;;;5.00;98.40;;;;;;5062904;28;20028;-89
2020/12/27 02:44:05;;;;;;;5.68;3.33;;;5.00;98.50;;;;;;5087566;28;20096;-89
2020/12/27 02:46:31;;;;;;;4.55;3.28;;;5.00;98.60;;;;;;5066322;28;20020;-90
2020/12/27 02:48:57;;;;;;;5.68;3.30;;;5.00;98.50;;;;;;5058076;28;20036;-89
2020/12/27 02:51:23;;;;;;;6.28;2.97;;;5.00;98.50;;;;;;5066180;28;20020;-89
2020/12/27 02:53:50;;;;;;;3.72;2.65;;;5.00;98.50;;;;;;5065644;28;20025;-90
2020/12/27 02:56:23;;;;;;;4.50;2.30;;;5.00;98.50;;;;;;5062618;28;20020;-89
2020/12/27 02:58:49;;;;;;;4.70;3.72;;;5.00;98.50;;;;;;5068449;28;20032;-91
2020/12/27 03:01:16;;;;;;;4.20;2.80;;;5.00;98.50;;;;;;5063440;28;20017;-89
2020/12/27 03:03:41;;;;;;;5.72;2.80;;;5.00;98.50;;;;;;5060492;28;20111;-90
2020/12/27 03:06:07;;;;;;;4.50;2.60;;;5.00;98.40;;;;;;5061686;28;20052;-89
2020/12/27 03:08:33;;;;;;;6.72;3.20;;;5.00;98.50;;;;;;5069097;28;20471;-90
2020/12/27 03:10:58;;;;;;;3.28;2.30;;;5.00;98.60;;;;;;5091841;28;20475;-89
2020/12/27 03:13:24;;;;;;;4.55;3.13;;;5.00;98.50;;;;;;5064493;28;20029;-90
2020/12/27 03:15:54;;;;;;;5.38;2.97;;;5.00;98.60;;;;;;5086746;28;20031;-90
2020/12/27 03:18:23;;;;;;;4.43;2.50;;;4.90;98.70;;;;;;5068596;28;20021;-90
2020/12/27 03:20:50;;;;;;;4.63;2.40;;;4.90;98.90;;;;;;5062914;28;20024;-90
2020/12/27 03:23:15;;;;;;;2.95;2.22;;;4.90;99.10;;;;;;5068498;28;20017;-88
2020/12/27 03:25:44;;;;;;;5.00;2.55;;;4.80;99.00;;;;;;5060382;28;20078;-89
2020/12/27 03:28:10;;;;;;;4.32;2.15;;;4.80;99.10;;;;;;5077475;28;20515;-89
2020/12/27 03:30:36;;;;;;;4.57;2.30;;;4.80;99.10;;;;;;5064073;28;20024;-89
2020/12/27 03:33:02;;;;;;;5.57;2.67;;;4.80;99.20;;;;;;5063853;28;20107;-91
2020/12/27 03:35:28;;;;;;;4.68;2.25;;;4.90;99.20;;;;;;5056831;28;20111;-88
2020/12/27 03:37:54;;;;;;;3.85;2.42;;;4.90;99.10;;;;;;5057184;28;20492;-89
2020/12/27 03:40:19;;;;;;;4.47;2.47;;;4.80;99.00;;;;;;5065127;28;20492;-91
2020/12/27 03:42:45;;;;;;;4.43;2.70;;;4.80;99.00;;;;;;5059507;28;20120;-89
2020/12/27 03:45:10;;;;;;;5.05;2.63;;;4.80;99.20;;;;;;5062727;28;20042;-90
2020/12/27 03:47:36;;;;;;;4.55;2.80;;;4.80;99.30;;;;;;5063262;28;20062;-89
2020/12/27 03:50:02;;;;;;;3.75;2.35;;;4.80;99.20;;;;;;5060927;28;20483;-89
2020/12/27 03:52:28;;;;;;;3.92;2.60;;;4.80;99.10;;;;;;5060861;28;20536;-90
2020/12/27 03:54:53;;;;;;;3.72;2.50;;;4.90;99.10;;;;;;5062307;28;20016;-89
2020/12/27 03:57:19;;;;;;;4.05;2.28;;;4.90;99.20;;;;;;5060436;28;20060;-90
2020/12/27 03:59:44;;;;;;;3.13;2.10;;;4.90;99.00;;;;;;5074132;28;20026;-89
2020/12/27 04:02:10;;;;;;;3.65;2.30;;;4.90;99.10;;;;;;5076113;28;20066;-90
2020/12/27 04:04:36;;;;;;;4.15;2.35;;;4.90;99.10;;;;;;5066487;28;20024;-90
2020/12/27 04:07:01;;;;;;;5.28;2.38;;;4.90;99.00;;;;;;5058518;28;20031;-90
2020/12/27 04:09:27;;;;;;;3.22;2.13;;;4.90;99.10;;;;;;5062230;28;20020;-89
2020/12/27 04:11:52;;;;;;;4.57;2.38;;;4.90;99.30;;;;;;5065431;28;20020;-89
2020/12/27 04:14:18;;;;;;;5.70;2.40;;;4.90;99.30;;;;;;5067076;28;20532;-90
2020/12/27 04:16:43;;;;;;;2.42;1.60;;;4.90;99.30;;;;;;5076687;28;20498;-90
2020/12/27 04:19:09;;;;;;;2.97;2.13;;;5.00;99.10;;;;;;5085293;28;20020;-89
2020/12/27 04:21:35;;;;;;;3.50;2.00;;;5.00;99.10;;;;;;5056580;28;20024;-90
2020/12/27 04:24:00;;;;;;;4.43;2.08;;;5.00;99.00;;;;;;5064498;28;20024;-90
2020/12/27 04:26:26;;;;;;;5.25;2.10;;;5.10;99.10;;;;;;5059241;28;20028;-90
2020/12/27 04:28:51;;;;;;;3.22;1.98;;;5.00;99.10;;;;;;5059103;28;20066;-90
2020/12/27 04:31:20;;;;;;;4.43;1.60;;;5.10;99.00;;;;;;5058943;28;20017;-90
2020/12/27 04:33:47;;;;;;;2.95;1.70;;;5.10;98.80;;;;;;5068972;28;20391;-90
2020/12/27 04:36:14;;;;;;;3.05;1.55;;;5.10;98.80;;;;;;5082638;28;20024;-89
2020/12/27 04:38:39;;;;;;;2.67;1.65;;;5.10;98.70;;;;;;5061317;28;20027;-89
2020/12/27 04:41:05;;;;;;;3.00;1.30;;;5.10;98.80;;;;;;5064297;28;20028;-89
2020/12/27 04:43:32;;;;;;;6.00;1.40;;;5.20;98.80;;;;;;5062190;28;20387;-90
2020/12/27 04:46:03;;;;;;;4.80;1.48;;;5.20;98.70;;;;;;5068505;28;20028;-89
2020/12/27 04:48:31;;;;;;;5.22;1.70;;;5.20;98.80;;;;;;5058675;28;20476;-89
2020/12/27 04:51:03;;;;;;;2.65;1.10;;;5.20;98.80;;;;;;5041765;28;20049;-90
2020/12/27 04:53:28;;;;;;;2.33;1.20;;;5.20;98.60;;;;;;5043199;28;20392;-90
2020/12/27 04:55:56;;;;;;;2.35;1.48;;;5.20;98.70;;;;;;5047274;28;20021;-91
2020/12/27 04:58:22;;;;;;;1.35;1.02;;;5.20;98.80;;;;;;5063336;28;20016;-91
2020/12/27 05:00:51;;;;;;;2.55;1.00;;;5.20;99.00;;;;;;5041507;28;20400;-90
2020/12/27 05:03:17;;;;;;;3.85;1.10;;;5.20;99.30;;;;;;5059968;28;20107;-90
2020/12/27 05:05:43;;;;;;;3.13;1.23;;;5.10;99.50;;;;;;5035941;28;20071;-89
2020/12/27 05:08:08;;;;;;;2.30;1.25;;;5.00;99.70;;;;;;5036079;28;20064;-90
2020/12/27 05:10:41;;;;;;;1.55;0.75;;;5.00;99.90;;;;;;5053195;28;20025;-90
2020/12/27 05:13:10;;;;;;;3.28;1.30;;;5.00;99.90;;;;;;5038480;28;20032;-89
2020/12/27 05:15:37;;;;;;;2.20;1.08;;;4.90;99.90;;;;;;5046637;28;20051;-91
2020/12/27 05:18:04;;;;;;;2.08;0.98;;;4.90;99.90;;;;;;5060620;28;20117;-90
2020/12/27 05:20:32;;;;;;;1.85;0.90;;;4.80;99.90;;;;;;5055923;28;20013;-90
2020/12/27 05:23:02;;;;;;;3.25;1.23;;;4.70;99.90;;;;;;5038393;28;20021;-90
2020/12/27 05:25:29;;;;;;;2.05;0.90;;;4.60;99.90;;;;;;5036350;28;20017;-90
2020/12/27 05:28:00;;;;;;;1.80;1.00;;;4.60;99.90;;;;;;5043523;28;20472;-90
2020/12/27 05:30:27;;;;;;;2.13;0.85;;;4.50;99.90;;;;;;5040620;28;20162;-91
2020/12/27 05:32:53;;;;;;;2.97;1.00;;;4.50;99.90;;;;;;5044066;28;20052;-91
2020/12/27 05:35:19;;;;;;;1.38;0.70;;;4.50;99.90;;;;;;5055943;28;20024;-91
2020/12/27 05:37:47;;;;;;;1.75;0.90;;;4.40;99.90;;;;;;5044700;28;20021;-91
2020/12/27 05:40:13;;;;;;;1.60;0.90;;;4.40;99.90;;;;;;5059673;28;20048;-92
2020/12/27 05:42:39;;;;;;;1.73;0.70;;;4.40;99.90;;;;;;5044845;28;20045;-90
2020/12/27 05:45:16;;;;;;;1.08;0.60;;;4.40;99.90;;;;;;5047510;28;20408;-94
2020/12/27 05:47:42;;;;;;;2.55;0.77;;;4.40;99.90;;;;;;5042912;28;20025;-92
2020/12/27 05:50:21;;;;;;;1.40;0.60;;;4.40;99.90;;;;;;5042409;28;20097;-92
2020/12/27 05:52:48;;;;;;;0.75;0.50;;;4.40;99.90;;;;;;5050198;28;20032;-93
2020/12/27 05:55:24;;;;;;;1.20;0.70;;;4.40;99.90;;;;;;5050310;28;20028;-95
2020/12/27 05:57:52;;;;;;;2.05;0.60;;;4.40;99.90;;;;;;5044602;28;20093;-94
2020/12/27 06:00:19;;;;;;;0.90;0.50;;;4.40;99.90;;;;;;5051271;28;20535;-95
2020/12/27 06:02:45;;;;;;;0.63;0.40;;;4.40;99.90;;;;;;5050576;28;20059;-96
2020/12/27 06:05:12;;;;;;;1.38;0.60;;;4.40;99.90;;;;;;5054827;28;20029;-96
2020/12/27 06:07:40;;;;;;;1.40;0.50;;;4.40;99.90;;;;;;5057930;28;20162;-93
2020/12/27 06:10:07;;;;;;;1.35;0.50;;;4.40;99.90;;;;;;5050688;28;20476;-96
2020/12/27 06:13:12;;;;;;;1.50;0.60;;;4.40;99.90;;;;;;5047393;28;20021;-94
2020/12/27 06:15:45;;;;;;;2.15;0.35;;;4.40;99.90;;;;;;5020746;28;20036;-93
2020/12/27 06:18:13;;;;;;;1.00;0.45;;;4.40;99.90;;;;;;5051010;28;20021;-94
2020/12/27 06:20:43;;;;;;;0.70;0.40;;;4.40;99.90;;;;;;5051586;28;20025;-93
2020/12/27 06:23:09;;;;;;;1.05;0.50;;;4.40;99.90;;;;;;5067060;28;20024;-94
2020/12/27 06:25:37;;;;;;;1.00;0.45;;;4.50;99.90;;;;;;5042054;28;20021;-95
2020/12/27 06:28:04;;;;;;;1.17;0.50;;;4.40;99.90;;;;;;5048923;28;20017;-95
2020/12/27 06:30:35;;;;;;;0.80;0.40;;;4.50;99.90;;;;;;5045662;28;20027;-94
2020/12/27 06:33:08;;;;;;;0.85;0.40;;;4.50;99.90;;;;;;5052444;28;20029;-95
2020/12/27 06:35:37;;;;;;;1.65;0.40;;;4.50;99.90;;;;;;5055866;28;20033;-94
2020/12/27 06:38:23;;;;;;;1.35;0.63;;;4.50;99.90;;;;;;5044490;28;20024;-94
2020/12/27 06:41:04;;;;;;;1.13;0.30;;;4.50;99.90;;;;;;5041602;28;20028;-91
2020/12/27 06:43:42;;;;;;;1.10;0.40;;;4.50;99.90;;;;;;5042095;28;20109;-93
2020/12/27 06:46:28;;;;;;;1.35;0.40;;;4.40;99.90;;;;;;5043085;28;20112;-92
2020/12/27 06:49:11;;;;;;;0.80;0.40;;;4.50;99.90;;;;;;5053162;28;20389;-95
2020/12/27 06:51:41;;;;;;;1.20;0.40;;;4.40;99.90;;;;;;5045484;28;20079;-92
2020/12/27 06:54:08;;;;;;;0.98;0.35;;;4.40;99.90;;;;;;5059154;28;20495;-92
2020/12/27 06:56:42;;;;;;;1.65;0.50;;;4.40;99.90;;;;;;5058005;28;20060;-92
2020/12/27 06:59:08;;;;;;;0.73;0.35;;;4.50;99.90;;;;;;5057349;28;20025;-92
2020/12/27 07:01:34;;;;;;;1.52;0.30;;;4.50;99.90;;;;;;5039141;28;20036;-90
2020/12/27 07:04:13;;;;;;;1.10;0.30;;;4.50;99.90;;;;;;5049525;28;20020;-93
2020/12/27 07:06:40;;;;;;;0.38;0.20;;;4.50;99.90;;;;;;5052038;28;20112;-95
2020/12/27 07:09:06;;;;;;;0.68;0.20;;;4.50;99.90;;;;;;5049669;28;20033;-93
2020/12/27 07:11:33;;;;;;;1.88;0.43;;;4.60;99.90;;;;;;5050063;28;20034;-95
2020/12/27 07:13:59;;;;;;;0.57;0.30;;;4.60;99.90;;;;;;5048061;28;20024;-95
2020/12/27 07:16:48;;;;;;;0.40;0.30;;;4.60;99.90;;;;;;5045498;28;20029;-91
2020/12/27 07:19:15;;;;;;;0.43;0.30;;;4.60;99.90;;;;;;5038421;28;20025;-94
2020/12/27 07:21:45;;;;;;;0.40;0.30;;;4.60;99.90;;;;;;5038235;28;20491;-91
2020/12/27 07:24:11;;;;;;;0.60;0.30;;;4.60;99.90;;;;;;5039195;28;20074;-91
2020/12/27 07:26:43;;;;;;;0.32;0.20;;;4.70;99.90;;;;;;5047067;28;20086;-90
2020/12/27 07:29:10;;;;;;;0.57;0.20;;;4.70;99.90;;;;;;5048390;28;20032;-89
2020/12/27 07:31:38;;;;;;;0.50;0.20;;;4.70;99.90;;;;;;5062861;28;20060;-91
2020/12/27 07:34:05;;;;;;;0.28;0.20;;;4.80;99.90;;;;;;5050613;28;20074;-90
2020/12/27 07:36:33;;;;;;;0.22;0.20;;;4.80;99.90;;;;;;5057898;28;20035;-89
2020/12/27 07:39:06;;;;;;;1.02;0.20;;;4.90;99.90;;;;;;5057908;28;20043;-90
2020/12/27 07:41:37;;;;;;;0.45;0.20;;;4.90;99.90;;;;;;5075690;28;20048;-89
2020/12/27 07:44:16;;;;;;;0.20;0.10;;;4.90;99.90;;;;;;5057823;28;20028;-90
2020/12/27 07:46:42;;;;;;;0.43;0.20;;;4.90;99.90;;;;;;5057723;28;20082;-91
2020/12/27 07:49:09;;;;;;;0.22;0.10;;;5.00;99.90;;;;;;5076882;28;20089;-91
2020/12/27 07:51:35;;;;;;;0.88;0.20;;;5.00;99.90;;;;;;5077785;28;20028;-91
2020/12/27 07:54:02;;;;;;;0.10;0.10;;;5.00;99.90;;;;;;5077554;28;20038;-90
2020/12/27 07:56:29;;;;;;;0.30;0.20;;;5.10;99.90;;;;;;5077687;28;20027;-91
2020/12/27 07:58:55;;;;;;;0.28;0.10;;;5.10;99.90;;;;;;5078129;28;20020;-90
2020/12/27 08:01:32;;;;;;;0.20;0.13;;;5.20;99.90;;;;;;5096938;28;20016;-91
2020/12/27 08:04:03;;;;;;;0.30;0.10;;;5.20;99.90;;;;;;5078765;28;20055;-90
2020/12/27 08:06:33;;;;;;;1.35;0.10;;;5.20;99.90;;;;;;5075199;28;20031;-89
2020/12/27 08:09:19;;;;;;;1.30;0.28;;;5.30;99.90;;;;;;5085242;28;20021;-91
2020/12/27 08:11:44;;;;;;;0.20;0.10;;;5.30;99.90;;;;;;5067207;28;20036;-91
2020/12/27 08:14:12;;;;;;;0.10;0.10;;;5.40;99.90;;;;;;5065706;28;20028;-91
2020/12/27 08:16:39;;;;;;;0.10;0.10;;;5.40;99.90;;;;;;5065193;28;20020;-92
2020/12/27 08:19:11;;;;;;;0.10;0.10;;;5.50;99.90;;;;;;5061298;28;20021;-91
2020/12/27 08:21:44;;;;;;;0.13;0.10;;;5.50;99.90;;;;;;5075343;28;20036;-92
2020/12/27 08:24:12;;;;;;;0.13;0.10;;;5.50;99.90;;;;;;5062841;28;20063;-92
2020/12/27 08:26:42;;;;;;;0.20;0.10;;;5.50;99.90;;;;;;5061980;28;20024;-91
2020/12/27 08:29:12;;;;;;;0.10;0.10;;;5.50;99.90;;;;;;5059427;28;20021;-92
2020/12/27 08:31:38;;;;;;;1.38;0.20;;;5.60;99.90;;;;;;5065744;28;20043;-92
2020/12/27 08:34:10;;;;;;;0.20;0.10;;;5.60;99.90;;;;;;5061597;28;20032;-92
2020/12/27 08:36:37;;;;;;;0.32;0.10;;;5.60;99.90;;;;;;5073750;28;20315;-92
2020/12/27 08:39:11;;;;;;;1.17;0.20;;;5.60;99.90;;;;;;5080821;28;20021;-90
2020/12/27 08:41:39;;;;;;;3.03;0.10;;;5.60;99.90;;;;;;5065362;28;20468;-91
2020/12/27 08:44:44;;;;;;;0.40;0.10;;;5.60;99.90;;;;;;5062017;28;20017;-91
2020/12/27 08:47:34;;;;;;;0.82;0.10;;;5.60;99.90;;;;;;5067080;28;20024;-90
2020/12/27 08:50:06;;;;;;;0.32;0.13;;;5.50;99.90;;;;;;5079780;28;20062;-90
2020/12/27 08:52:33;;;;;;;0.22;0.10;;;5.40;99.90;;;;;;5060837;28;20114;-90
2020/12/27 08:55:01;;;;;;;0.40;0.13;;;5.40;99.90;;;;;;5069866;28;20523;-89
2020/12/27 08:57:27;;;;;;;0.30;0.17;;;5.30;99.90;;;;;;5078834;28;20028;-91
2020/12/27 09:00:07;;;;;;;1.58;0.20;;;5.20;99.90;;;;;;5066987;28;20024;-91
2020/12/27 09:02:33;;;;;;;0.40;0.20;;;5.20;99.90;;;;;;5068956;28;20024;-91
2020/12/27 09:05:00;;;;;;;1.27;0.20;;;5.10;99.90;;;;;;5062875;28;20012;-90
2020/12/27 09:07:33;;;;;;;0.50;0.22;;;5.10;99.90;;;;;;5063548;28;20027;-91
2020/12/27 09:10:09;;;;;;;0.57;0.20;;;5.10;99.90;;;;;;5077038;28;20101;-92
2020/12/27 09:12:35;;;;;;;0.40;0.20;;;5.20;99.90;;;;;;5061874;28;20443;-90
2020/12/27 09:15:19;;;;;;;0.32;0.20;;;5.10;99.90;;;;;;5065332;28;20088;-90
2020/12/27 09:17:52;;;;;;;1.25;0.20;;;5.10;99.90;;;;;;5058426;28;20031;-91
2020/12/27 09:20:20;;;;;;;0.30;0.20;;;5.10;99.90;;;;;;5077635;28;20017;-91
2020/12/27 09:22:45;;;;;;;0.22;0.20;;;5.10;99.90;;;;;;5064037;28;20016;-89
2020/12/27 09:25:11;;;;;;;0.55;0.20;;;5.10;99.90;;;;;;5062714;28;20040;-91
2020/12/27 09:27:36;;;;;;;0.85;0.10;;;5.00;99.90;;;;;;5057912;28;20031;-90
2020/12/27 09:30:03;;;;;;;0.20;0.10;;;5.10;99.90;;;;;;5057136;28;20028;-90
2020/12/27 09:32:33;;;;;;;0.70;0.20;;;5.00;99.90;;;;;;5070993;28;21227;-89
2020/12/27 09:34:59;;;;;;;;;;;5.10;99.90;;;;;;5064429;28;20054;-88
2020/12/27 09:37:24;;;;;;;0.90;0.22;;;5.00;99.90;;;;;;5054831;28;19955;-87
2020/12/27 09:39:56;;;;;;;0.63;0.38;;;5.00;99.90;;;;;;5059886;28;20380;-89
2020/12/27 09:42:27;;;;;;;0.40;0.20;;;5.10;99.90;;;;;;5063012;28;20033;-89
2020/12/27 09:44:54;;;;;;;0.30;0.20;;;5.10;99.90;;;;;;5066468;28;20023;-90
2020/12/27 09:47:28;;;;;;;2.50;0.20;;;5.10;99.90;;;;;;5062082;28;20497;-89
2020/12/27 09:50:06;;;;;;;1.92;0.30;;;5.10;99.90;;;;;;5057515;28;20047;-90
2020/12/27 09:52:43;;;;;;;1.15;0.30;;;5.10;99.90;;;;;;5060384;28;20552;-89
2020/12/27 09:55:09;;;;;;;1.00;0.20;;;5.10;99.90;;;;;;5063438;28;20460;-89
2020/12/27 09:57:34;;;;;;;0.30;0.20;;;5.10;99.90;;;;;;5060848;28;20016;-89
2020/12/27 10:00:00;;;;;;;0.60;0.20;;;5.10;99.90;;;;;;5062900;28;20020;-89
2020/12/27 10:02:26;;;;;;;0.73;0.20;;;5.10;99.90;;;;;;5057320;28;20021;-89
2020/12/27 10:04:51;;;;;;;1.23;0.30;;;5.10;99.90;;;;;;5059510;28;20152;-88
2020/12/27 10:07:17;;;;;;;0.50;0.20;;;5.10;99.90;;;;;;5057135;28;20074;-88
2020/12/27 10:09:43;;;;;;;1.33;0.70;;;5.10;99.90;;;;;;5072498;28;20033;-88
2020/12/27 10:12:08;;;;;;;1.35;0.60;;;5.10;99.90;;;;;;5062403;28;20483;-89
2020/12/27 10:14:34;;;;;;;0.90;0.28;;;5.10;99.90;;;;;;5083053;28;20016;-88
2020/12/27 10:17:01;;;;;;;0.47;0.25;;;5.10;99.90;;;;;;5061370;28;20472;-87
2020/12/27 10:19:28;;;;;;;1.25;0.20;;;5.10;99.90;;;;;;5067290;28;20090;-87
2020/12/27 10:21:54;;;;;;;0.75;0.30;;;5.10;99.90;;;;;;5065875;28;20070;-88
2020/12/27 10:24:20;;;;;;;0.95;0.20;;;5.10;99.90;;;;;;5060326;28;20020;-89
2020/12/27 10:26:49;;;;;;;0.43;0.20;;;5.10;99.90;;;;;;5065345;28;20028;-87
2020/12/27 10:29:15;;;;;;;0.60;0.30;;;5.10;99.90;;;;;;5057402;28;20021;-88
2020/12/27 10:31:40;;;;;;;0.40;0.20;;;5.10;99.90;;;;;;5067311;28;20264;-88
2020/12/27 10:34:06;;;;;;;0.40;0.20;;;5.10;99.90;;;;;;5077941;28;20085;-88
2020/12/27 10:36:31;;;;;;;0.70;0.30;;;5.20;99.90;;;;;;5064228;28;20476;-87
2020/12/27 10:38:57;;;;;;;0.30;0.20;;;5.20;99.90;;;;;;5076321;28;20048;-88
2020/12/27 10:41:23;;;;;;;1.92;0.20;;;5.20;99.90;;;;;;5078680;28;20016;-88
2020/12/27 10:43:51;;;;;;;1.35;0.32;;;5.30;99.90;;;;;;5059953;28;20047;-88
2020/12/27 10:46:18;;;;;;;0.40;0.20;;;5.20;99.90;;;;;;5059979;28;20396;-88
2020/12/27 10:48:44;;;;;;;0.30;0.30;;;5.20;99.90;;;;;;5058763;28;20035;-89
2020/12/27 10:51:09;;;;;;;0.20;0.15;;;5.20;99.90;;;;;;5063192;28;20092;-89
2020/12/27 10:53:36;;;;;;;1.30;0.28;;;5.30;99.90;;;;;;5060656;28;20024;-88
2020/12/27 10:56:02;;;;;;;0.88;0.30;;;5.30;99.90;;;;;;5075413;28;20078;-88
2020/12/27 10:58:28;;;;;;;1.10;0.30;;;5.30;99.90;;;;;;5059783;28;20024;-88
2020/12/27 11:00:53;;;;;;;0.52;0.20;;;5.30;99.90;;;;;;5066832;28;20020;-89
2020/12/27 11:03:19;;;;;;;1.85;0.15;;;5.30;99.90;;;;;;5056829;28;20016;-88
2020/12/27 11:05:46;;;;;;;0.30;0.20;;;5.30;99.90;;;;;;5061327;28;20032;-88
2020/12/27 11:08:11;;;;;;;0.30;0.20;;;5.30;99.90;;;;;;5080815;28;20038;-87
2020/12/27 11:10:37;;;;;;;0.30;0.20;;;5.40;99.90;;;;;;5055234;28;20480;-88
2020/12/27 11:13:02;;;;;;;2.00;0.13;;;5.40;99.90;;;;;;5066309;28;20479;-88
2020/12/27 11:15:32;;;;;;;0.40;0.20;;;5.40;99.90;;;;;;5058078;28;20016;-88
2020/12/27 11:18:02;;;;;;;0.20;0.20;;;5.40;99.90;;;;;;5064254;28;20383;-89
2020/12/27 11:20:28;;;;;;;0.30;0.20;;;5.40;99.90;;;;;;5069964;28;20513;-88
2020/12/27 11:22:55;;;;;;;0.10;0.10;;;5.40;99.90;;;;;;5065508;28;20024;-88
2020/12/27 11:25:21;;;;;;;0.55;0.05;;;5.50;99.90;;;;;;5063827;28;20060;-89
2020/12/27 11:27:46;;;;;;;0.20;0.10;;;5.50;99.90;;;;;;5059118;28;20051;-89
2020/12/27 11:30:12;;;;;;;0.10;0.10;;;5.60;99.90;;;;;;5067773;28;20025;-88
2020/12/27 11:32:38;;;;;;;0.30;0.20;;;5.60;99.90;;;;;;5085829;28;20063;-88
2020/12/27 11:35:03;;;;;;;0.50;0.20;;;5.70;99.90;;;;;;5078105;28;20071;-87
2020/12/27 11:37:29;;;;;;;1.92;0.20;;;5.70;99.90;;;;;;5083222;28;20020;-88
2020/12/27 11:39:54;;;;;;;0.57;0.20;;;5.70;99.90;;;;;;5064094;28;20016;-88
2020/12/27 11:42:24;;;;;;;0.20;0.20;;;5.70;99.90;;;;;;5060786;28;20057;-89
2020/12/27 11:44:50;;;;;;;0.30;0.20;;;5.70;99.90;;;;;;5060226;28;20024;-89
2020/12/27 11:47:16;;;;;;;0.80;0.15;;;5.80;99.90;;;;;;5090639;28;20384;-88
2020/12/27 11:49:41;;;;;;;1.73;0.20;;;5.80;99.90;;;;;;5057752;28;20149;-87
2020/12/27 11:52:07;;;;;;;0.20;0.10;;;5.90;99.90;;;;;;5060233;28;20026;-89
2020/12/27 11:54:32;;;;;;;0.52;0.10;;;5.90;99.90;;;;;;5062324;28;20196;-89
2020/12/27 11:56:58;;;;;;;0.20;0.20;;;6.00;99.90;;;;;;5069943;28;20020;-90
2020/12/27 11:59:24;;;;;;;0.10;0.10;;;6.00;99.90;;;;;;5076904;28;20381;-89
2020/12/27 12:01:50;;;;;;;0.40;0.13;;;6.00;99.90;;;;;;5067652;28;20032;-89
2020/12/27 12:04:16;;;;;;;0.65;0.10;;;6.00;99.90;;;;;;5078962;28;20103;-89
2020/12/27 12:06:42;;;;;;;0.63;0.10;;;6.00;99.90;;;;;;5058705;28;20472;-90
2020/12/27 12:09:08;;;;;;;0.47;0.10;;;6.00;99.90;;;;;;5063181;28;20024;-90
2020/12/27 12:11:40;;;;;;;0.25;0.13;;;6.10;99.90;;;;;;5059285;28;20108;-91
2020/12/27 12:14:06;;;;;;;0.30;0.13;;;6.10;99.90;;;;;;5074219;28;20029;-91
2020/12/27 12:16:32;;;;;;;0.40;0.13;;;6.10;99.90;;;;;;5058995;28;20418;-89
2020/12/27 12:18:58;;;;;;;0.50;0.20;;;6.10;99.90;;;;;;5064471;28;20023;-90
2020/12/27 12:21:25;;;;;;;0.20;0.10;;;6.10;99.90;;;;;;5060539;28;20027;-90
2020/12/27 12:23:51;;;;;;;0.30;0.10;;;6.10;99.90;;;;;;5071524;28;20020;-90
2020/12/27 12:26:21;;;;;;;0.03;0.03;;;6.10;99.90;;;;;;5070362;28;20024;-89
2020/12/27 12:28:47;;;;;;;0.08;0.08;;;6.20;99.90;;;;;;5082071;28;20024;-89
2020/12/27 12:31:15;;;;;;;0.30;0.10;;;6.20;99.90;;;;;;5077132;28;20020;-89
2020/12/27 12:33:42;;;;;;;0.10;0.10;;;6.20;99.90;;;;;;5077990;28;20028;-90
2020/12/27 12:36:12;;;;;;;0.20;0.10;;;6.20;99.90;;;;;;5084843;28;20095;-89
2020/12/27 12:38:38;;;;;;;0.43;0.10;;;6.20;99.90;;;;;;5059949;28;20472;-91
2020/12/27 12:41:03;;;;;;;0.20;0.10;;;6.20;99.90;;;;;;5063301;28;20103;-90
2020/12/27 12:43:30;;;;;;;0.20;0.15;;;6.20;99.90;;;;;;5076446;28;20027;-90
2020/12/27 12:45:58;;;;;;;0.10;0.10;;;6.20;99.90;;;;;;5060168;28;20495;-89
2020/12/27 12:48:24;;;;;;;0.25;0.20;;;6.30;99.90;;;;;;5058491;28;20074;-90
2020/12/27 12:50:50;;;;;;;0.28;0.10;;;6.30;99.90;;;;;;5054985;28;20094;-90
2020/12/27 12:53:15;;;;;;;0.20;0.10;;;6.40;99.90;;;;;;5056367;28;20057;-91
2020/12/27 12:55:41;;;;;;;0.20;0.10;;;6.40;99.90;;;;;;5057905;28;20025;-89
2020/12/27 12:58:06;;;;;;;0.20;0.13;;;6.40;99.90;;;;;;5059473;28;20021;-91
2020/12/27 13:00:32;;;;;;;0.10;0.10;;;6.50;99.70;;;;;;5073360;28;20024;-92